createdAt,value
2019-05-09T00:00:49.486Z,10.94
2019-05-09T00:03:15.951Z,10.92
2019-05-09T00:05:44.095Z,10.90
2019-05-09T00:08:10.451Z,10.91
2019-05-09T00:10:41.583Z,10.93
2019-05-09T00:13:05.801Z,10.92
2019-05-09T00:15:33.239Z,10.91
2019-05-09T00:17:59.654Z,10.92
2019-05-09T00:20:27.658Z,10.93
2019-05-09T00:22:54.014Z,10.96
2019-05-09T00:25:20.153Z,10.96
2019-05-09T00:27:46.479Z,10.95
2019-05-09T00:30:14.480Z,10.95
2019-05-09T00:32:43.234Z,10.92
2019-05-09T00:35:17.327Z,10.91
2019-05-09T00:37:55.457Z,10.88
2019-05-09T00:40:23.823Z,10.91
2019-05-09T00:42:53.330Z,10.91
2019-05-09T00:45:39.954Z,10.92
2019-05-09T00:48:06.257Z,10.87
2019-05-09T00:50:34.141Z,10.87
2019-05-09T00:53:00.440Z,10.86
2019-05-09T00:55:26.649Z,10.83
2019-05-09T00:57:53.439Z,10.81
2019-05-09T01:00:20.413Z,10.76
2019-05-09T01:02:46.554Z,10.76
2019-05-09T01:05:13.270Z,10.80
2019-05-09T01:07:39.825Z,10.82
2019-05-09T01:10:07.356Z,10.80
2019-05-09T01:12:34.203Z,10.80
2019-05-09T01:15:03.346Z,10.78
2019-05-09T01:17:29.820Z,10.78
2019-05-09T01:19:57.181Z,10.75
2019-05-09T01:22:23.663Z,10.72
2019-05-09T01:24:50.067Z,10.68
2019-05-09T01:27:16.281Z,10.66
2019-05-09T01:29:43.954Z,10.63
2019-05-09T01:32:14.722Z,10.62
2019-05-09T01:34:41.142Z,10.61
2019-05-09T01:37:09.210Z,10.55
2019-05-09T01:39:35.725Z,10.52
2019-05-09T01:42:03.280Z,10.51
2019-05-09T01:44:29.995Z,10.48
2019-05-09T01:46:56.166Z,10.44
2019-05-09T01:49:23.226Z,10.44
2019-05-09T01:51:49.680Z,10.43
2019-05-09T01:54:17.305Z,10.38
2019-05-09T01:56:43.547Z,10.40
2019-05-09T01:59:09.863Z,10.41
2019-05-09T02:01:36.107Z,10.41
2019-05-09T02:04:04.047Z,10.40
2019-05-09T02:06:30.554Z,10.39
2019-05-09T02:08:56.786Z,10.38
2019-05-09T02:11:23.868Z,10.35
2019-05-09T02:13:50.588Z,10.32
2019-05-09T02:16:33.871Z,10.32
2019-05-09T02:19:04.059Z,10.32
2019-05-09T02:21:30.383Z,10.30
2019-05-09T02:23:56.672Z,10.28
2019-05-09T02:26:24.012Z,10.28
2019-05-09T02:28:50.326Z,10.26
2019-05-09T02:31:16.752Z,10.24
2019-05-09T02:33:45.574Z,10.21
2019-05-09T02:36:11.032Z,10.19
2019-05-09T02:38:39.210Z,10.13
2019-05-09T02:41:08.366Z,10.11
2019-05-09T02:43:34.517Z,10.11
2019-05-09T02:46:02.741Z,10.10
2019-05-09T02:48:29.165Z,10.08
2019-05-09T02:50:55.433Z,10.08
2019-05-09T02:53:21.661Z,10.11
2019-05-09T02:55:49.424Z,10.11
2019-05-09T02:58:20.394Z,10.11
2019-05-09T03:00:59.706Z,10.13
2019-05-09T03:03:39.061Z,10.09
2019-05-09T03:06:04.116Z,10.03
2019-05-09T03:08:30.404Z,10.00
2019-05-09T03:10:59.079Z,9.97
2019-05-09T03:13:24.820Z,9.96
2019-05-09T03:15:52.884Z,9.95
2019-05-09T03:18:19.112Z,9.91
2019-05-09T03:20:58.585Z,9.90
2019-05-09T03:23:24.698Z,9.91
2019-05-09T03:25:51.018Z,9.90
2019-05-09T03:28:19.154Z,9.87
2019-05-09T03:30:50.477Z,9.88
2019-05-09T03:33:19.956Z,9.88
2019-05-09T03:35:48.172Z,9.90
2019-05-09T03:38:14.545Z,9.89
2019-05-09T03:40:40.867Z,9.84
2019-05-09T03:43:08.104Z,9.82
2019-05-09T03:45:37.669Z,9.83
2019-05-09T03:48:07.388Z,9.86
2019-05-09T03:50:34.018Z,9.87
2019-05-09T03:53:01.125Z,9.89
2019-05-09T03:55:29.260Z,9.87
2019-05-09T03:57:58.127Z,9.87
2019-05-09T04:00:24.793Z,9.86
2019-05-09T04:02:51.179Z,9.83
2019-05-09T04:05:18.096Z,9.83
2019-05-09T04:07:44.395Z,9.81
2019-05-09T04:10:10.923Z,9.80
2019-05-09T04:12:37.625Z,9.77
2019-05-09T04:15:05.686Z,9.77
2019-05-09T04:17:42.220Z,9.75
2019-05-09T04:20:11.638Z,9.77
2019-05-09T04:22:38.549Z,9.74
2019-05-09T04:25:07.811Z,9.74
2019-05-09T04:27:34.399Z,9.76
2019-05-09T04:30:00.569Z,9.76
2019-05-09T04:32:27.358Z,9.76
2019-05-09T04:34:53.797Z,9.77
2019-05-09T04:37:19.903Z,9.73
2019-05-09T04:39:47.686Z,9.75
2019-05-09T04:42:13.894Z,9.74
2019-05-09T04:44:41.961Z,9.75
2019-05-09T04:47:08.849Z,9.79
2019-05-09T04:49:39.780Z,9.86
2019-05-09T04:52:03.179Z,9.85
2019-05-09T04:54:29.534Z,9.86
2019-05-09T04:56:57.378Z,9.85
2019-05-09T04:59:23.831Z,9.84
2019-05-09T05:01:52.193Z,9.82
2019-05-09T05:04:19.761Z,9.81
2019-05-09T05:06:47.773Z,9.80
2019-05-09T05:09:14.109Z,9.82
2019-05-09T05:11:40.283Z,9.83
2019-05-09T05:14:09.088Z,9.80
2019-05-09T05:16:34.603Z,9.80
2019-05-09T05:19:00.800Z,9.83
2019-05-09T05:21:28.450Z,9.88
2019-05-09T05:23:57.703Z,9.95
2019-05-09T05:26:24.069Z,9.96
2019-05-09T05:28:50.358Z,9.95
2019-05-09T05:31:18.076Z,9.88
2019-05-09T05:34:02.869Z,9.94
2019-05-09T05:36:28.971Z,9.94
2019-05-09T05:38:55.209Z,9.92
2019-05-09T05:41:21.369Z,9.94
2019-05-09T05:43:47.980Z,9.88
2019-05-09T05:46:18.191Z,9.86
2019-05-09T05:48:45.306Z,9.90
2019-05-09T05:51:11.522Z,9.94
2019-05-09T05:53:38.107Z,9.94
2019-05-09T05:56:04.564Z,9.96
2019-05-09T05:58:30.795Z,9.98
2019-05-09T06:00:58.859Z,9.99
2019-05-09T06:03:25.075Z,10.05
2019-05-09T06:05:51.882Z,10.07
2019-05-09T06:08:18.258Z,10.12
2019-05-09T06:10:44.458Z,10.18
2019-05-09T06:13:10.688Z,10.24
2019-05-09T06:15:37.862Z,10.31
2019-05-09T06:18:04.521Z,10.37
2019-05-09T06:20:30.615Z,10.43
2019-05-09T06:22:58.208Z,10.54
2019-05-09T06:25:24.675Z,10.61
2019-05-09T06:27:50.878Z,10.66
2019-05-09T06:30:32.810Z,10.77
2019-05-09T06:32:59.534Z,10.82
2019-05-09T06:35:28.224Z,10.92
2019-05-09T06:37:54.259Z,11.03
2019-05-09T06:40:23.123Z,11.17
2019-05-09T06:42:50.141Z,11.22
2019-05-09T06:45:31.073Z,11.23
2019-05-09T06:47:58.340Z,11.28
2019-05-09T06:50:27.299Z,11.33
2019-05-09T06:52:53.598Z,11.37
2019-05-09T06:55:19.873Z,11.38
2019-05-09T06:57:48.687Z,11.36
2019-05-09T07:00:19.879Z,11.35
2019-05-09T07:02:48.083Z,11.35
2019-05-09T07:05:25.246Z,11.32
2019-05-09T07:07:53.373Z,11.33
2019-05-09T07:10:19.624Z,11.34
2019-05-09T07:12:45.877Z,11.31
2019-05-09T07:15:12.211Z,11.33
2019-05-09T07:17:38.803Z,11.34
2019-05-09T07:20:08.179Z,11.37
2019-05-09T07:22:35.414Z,11.43
2019-05-09T07:25:12.857Z,11.68
2019-05-09T07:27:40.293Z,11.91
2019-05-09T07:30:29.064Z,12.28
2019-05-09T07:33:02.625Z,12.55
2019-05-09T07:35:28.836Z,12.84
2019-05-09T07:37:55.003Z,12.95
2019-05-09T07:40:21.214Z,13.04
2019-05-09T07:42:48.107Z,12.99
2019-05-09T07:45:14.488Z,12.95
2019-05-09T07:47:40.624Z,12.95
2019-05-09T07:50:08.597Z,12.91
2019-05-09T07:52:34.973Z,12.86
2019-05-09T07:55:01.211Z,12.76
2019-05-09T07:57:28.715Z,12.80
2019-05-09T07:59:55.177Z,13.02
2019-05-09T08:02:21.349Z,13.17
2019-05-09T08:04:48.861Z,13.27
2019-05-09T08:07:17.565Z,13.20
2019-05-09T08:09:43.738Z,13.15
2019-05-09T08:12:10.008Z,13.29
2019-05-09T08:14:37.708Z,13.32
2019-05-09T08:17:04.305Z,13.18
2019-05-09T08:19:30.506Z,13.17
2019-05-09T08:21:57.502Z,13.09
2019-05-09T08:24:27.559Z,12.90
2019-05-09T08:26:53.211Z,12.79
2019-05-09T08:29:20.096Z,12.78
2019-05-09T08:31:48.505Z,12.95
2019-05-09T08:34:15.241Z,13.25
2019-05-09T08:36:41.401Z,13.59
2019-05-09T08:39:08.352Z,13.72
2019-05-09T08:41:34.571Z,13.77
2019-05-09T08:44:00.924Z,13.67
2019-05-09T08:46:28.608Z,13.77
2019-05-09T08:48:57.582Z,13.88
2019-05-09T08:51:35.292Z,13.89
2019-05-09T08:53:53.953Z,13.86
2019-05-09T08:56:20.072Z,14.15
2019-05-09T08:58:48.495Z,14.18
2019-05-09T09:01:14.800Z,14.02
2019-05-09T09:03:41.048Z,13.90
2019-05-09T09:06:08.262Z,13.82
2019-05-09T09:08:34.736Z,13.91
2019-05-09T09:11:00.896Z,13.99
2019-05-09T09:13:28.371Z,14.10
2019-05-09T09:16:12.100Z,14.25
2019-05-09T09:18:23.120Z,14.34
2019-05-09T09:20:49.307Z,14.41
2019-05-09T09:23:17.874Z,14.72
2019-05-09T09:25:43.732Z,15.04
2019-05-09T09:28:10.140Z,15.13
2019-05-09T09:30:38.623Z,14.97
2019-05-09T09:33:04.597Z,14.96
2019-05-09T09:35:30.763Z,15.31
2019-05-09T09:37:57.984Z,15.54
2019-05-09T09:40:24.838Z,15.69
2019-05-09T09:42:51.128Z,15.57
2019-05-09T09:45:18.373Z,15.47
2019-05-09T09:47:44.926Z,15.15
2019-05-09T09:50:11.390Z,15.06
2019-05-09T09:52:38.455Z,14.97
2019-05-09T09:55:08.780Z,15.30
2019-05-09T09:57:34.160Z,15.33
2019-05-09T10:00:18.098Z,15.12
2019-05-09T10:02:44.415Z,15.07
2019-05-09T10:05:11.108Z,14.99
2019-05-09T10:07:38.410Z,15.10
2019-05-09T10:10:07.692Z,15.41
2019-05-09T10:12:33.842Z,15.63
2019-05-09T10:15:04.962Z,15.99
2019-05-09T10:17:38.116Z,15.87
2019-05-09T10:20:18.251Z,15.86
2019-05-09T10:22:55.365Z,15.49
2019-05-09T10:25:12.883Z,15.35
2019-05-09T10:27:39.009Z,15.18
2019-05-09T10:30:09.121Z,15.11
2019-05-09T10:32:38.179Z,15.34
2019-05-09T10:35:04.771Z,15.41
2019-05-09T10:37:31.011Z,15.60
2019-05-09T10:39:58.056Z,16.03
2019-05-09T10:42:29.520Z,17.19
2019-05-09T10:45:14.372Z,18.65
2019-05-09T10:47:41.962Z,18.65
2019-05-09T10:50:08.692Z,18.39
2019-05-09T10:52:35.157Z,19.28
2019-05-09T10:55:01.438Z,19.44
2019-05-09T10:57:31.519Z,20.18
2019-05-09T10:59:57.942Z,19.61
2019-05-09T11:02:24.086Z,18.79
2019-05-09T11:04:50.191Z,17.85
2019-05-09T11:07:18.182Z,17.11
2019-05-09T11:09:44.459Z,17.12
2019-05-09T11:12:10.829Z,20.55
2019-05-09T11:14:37.749Z,22.59
2019-05-09T11:17:10.647Z,23.78
2019-05-09T11:19:32.246Z,24.71
2019-05-09T11:21:58.763Z,22.14
2019-05-09T11:24:40.604Z,21.16
2019-05-09T11:26:53.624Z,22.29
2019-05-09T11:29:19.991Z,24.81
2019-05-09T11:31:47.782Z,26.29
2019-05-09T11:34:14.563Z,26.18
2019-05-09T11:36:41.973Z,25.07
2019-05-09T11:39:10.599Z,23.62
2019-05-09T11:41:38.374Z,21.96
2019-05-09T11:44:04.912Z,20.77
2019-05-09T11:46:32.255Z,20.25
2019-05-09T11:48:59.112Z,19.53
2019-05-09T11:51:25.352Z,18.87
2019-05-09T11:53:51.688Z,18.70
2019-05-09T11:56:18.302Z,22.19
2019-05-09T11:58:44.563Z,22.74
2019-05-09T12:01:10.783Z,21.07
2019-05-09T12:03:38.851Z,19.93
2019-05-09T12:06:05.112Z,18.99
2019-05-09T12:08:31.529Z,18.92
2019-05-09T12:10:58.012Z,18.55
2019-05-09T12:13:24.172Z,18.27
2019-05-09T12:15:50.411Z,18.22
2019-05-09T12:18:16.590Z,20.79
2019-05-09T12:20:42.926Z,21.27
2019-05-09T12:23:09.051Z,20.20
2019-05-09T12:25:35.304Z,21.66
2019-05-09T12:28:01.507Z,24.18
2019-05-09T12:30:28.598Z,25.94
2019-05-09T12:32:55.016Z,27.57
2019-05-09T12:35:21.503Z,24.48
2019-05-09T12:37:48.404Z,24.03
2019-05-09T12:40:15.010Z,22.51
2019-05-09T12:42:42.283Z,21.90
2019-05-09T12:45:09.279Z,24.20
2019-05-09T12:47:35.646Z,22.81
2019-05-09T12:50:02.932Z,21.88
2019-05-09T12:52:29.649Z,21.38
2019-05-09T12:54:58.142Z,20.89
2019-05-09T12:57:24.086Z,20.48
2019-05-09T12:59:52.870Z,20.28
2019-05-09T13:02:18.733Z,19.99
2019-05-09T13:04:44.845Z,19.54
2019-05-09T13:07:11.277Z,19.26
2019-05-09T13:09:37.453Z,18.99
2019-05-09T13:12:03.741Z,19.71
2019-05-09T13:14:31.090Z,19.35
2019-05-09T13:17:05.253Z,20.63
2019-05-09T13:19:42.571Z,21.15
2019-05-09T13:22:08.724Z,20.95
2019-05-09T13:24:37.870Z,21.83
2019-05-09T13:27:04.389Z,23.47
2019-05-09T13:29:30.682Z,25.33
2019-05-09T13:31:57.760Z,24.65
2019-05-09T13:34:24.292Z,23.18
2019-05-09T13:36:50.522Z,22.32
2019-05-09T13:39:17.991Z,22.45
2019-05-09T13:41:44.485Z,23.38
2019-05-09T13:44:13.963Z,22.70
2019-05-09T13:46:39.177Z,22.67
2019-05-09T13:49:11.545Z,22.80
2019-05-09T13:51:33.796Z,23.03
2019-05-09T13:54:00.053Z,24.00
2019-05-09T13:56:27.952Z,25.42
2019-05-09T13:58:54.378Z,27.14
2019-05-09T14:01:20.527Z,28.56
2019-05-09T14:03:49.134Z,29.00
2019-05-09T14:06:15.066Z,27.46
2019-05-09T14:08:41.325Z,27.42
2019-05-09T14:11:08.309Z,29.14
2019-05-09T14:13:34.858Z,30.14
2019-05-09T14:16:15.828Z,28.01
2019-05-09T14:18:29.486Z,26.19
2019-05-09T14:20:57.565Z,24.72
2019-05-09T14:23:23.884Z,23.34
2019-05-09T14:25:51.977Z,22.75
2019-05-09T14:28:19.194Z,23.55
2019-05-09T14:30:47.672Z,22.82
2019-05-09T14:33:13.437Z,21.93
2019-05-09T14:35:39.624Z,21.55
2019-05-09T14:38:05.899Z,22.43
2019-05-09T14:40:32.119Z,24.05
2019-05-09T14:42:58.214Z,23.18
2019-05-09T14:45:24.470Z,22.48
2019-05-09T14:47:50.636Z,23.78
2019-05-09T14:50:18.060Z,25.21
2019-05-09T14:52:44.562Z,27.48
2019-05-09T14:55:10.967Z,28.56
2019-05-09T14:57:38.385Z,29.13
2019-05-09T15:00:07.738Z,27.37
2019-05-09T15:02:33.846Z,25.83
2019-05-09T15:05:01.013Z,24.35
2019-05-09T15:07:28.394Z,23.31
2019-05-09T15:09:56.859Z,22.52
2019-05-09T15:12:22.990Z,21.76
2019-05-09T15:14:49.201Z,21.23
2019-05-09T15:17:15.402Z,20.64
2019-05-09T15:19:56.570Z,20.30
2019-05-09T15:22:09.696Z,19.94
2019-05-09T15:24:35.819Z,19.73
2019-05-09T15:27:02.108Z,19.43
2019-05-09T15:29:29.086Z,19.31
2019-05-09T15:32:03.279Z,19.31
2019-05-09T15:34:23.699Z,19.39
2019-05-09T15:36:49.976Z,19.58
2019-05-09T15:39:18.362Z,19.82
2019-05-09T15:41:44.566Z,20.14
2019-05-09T15:44:10.858Z,20.22
2019-05-09T15:46:48.566Z,20.20
2019-05-09T15:49:14.775Z,20.07
2019-05-09T15:51:41.071Z,19.85
2019-05-09T15:54:08.316Z,19.41
2019-05-09T15:56:35.614Z,18.83
2019-05-09T15:59:02.107Z,18.18
2019-05-09T16:01:28.404Z,17.90
2019-05-09T16:03:54.786Z,17.71
2019-05-09T16:06:21.137Z,17.59
2019-05-09T16:08:47.420Z,17.58
2019-05-09T16:11:13.699Z,17.57
2019-05-09T16:13:39.922Z,17.64
2019-05-09T16:16:08.810Z,17.54
2019-05-09T16:18:34.220Z,17.54
2019-05-09T16:21:00.378Z,17.33
2019-05-09T16:23:28.979Z,17.29
2019-05-09T16:25:54.737Z,17.30
2019-05-09T16:28:21.122Z,17.18
2019-05-09T16:30:48.297Z,17.04
2019-05-09T16:33:14.875Z,16.93
2019-05-09T16:35:41.739Z,16.82
2019-05-09T16:38:10.793Z,16.72
2019-05-09T16:40:38.642Z,16.66
2019-05-09T16:43:04.907Z,16.61
2019-05-09T16:45:31.279Z,16.61
2019-05-09T16:47:57.722Z,16.53
2019-05-09T16:50:23.836Z,16.40
2019-05-09T16:52:50.153Z,16.22
2019-05-09T16:55:21.429Z,16.08
2019-05-09T16:57:47.595Z,15.96
2019-05-09T17:00:20.642Z,15.91
2019-05-09T17:02:48.092Z,15.82
2019-05-09T17:05:14.552Z,15.86
2019-05-09T17:07:40.768Z,15.75
2019-05-09T17:10:08.633Z,15.71
2019-05-09T17:12:35.036Z,15.62
2019-05-09T17:15:02.689Z,15.53
2019-05-09T17:17:29.932Z,15.42
2019-05-09T17:19:57.289Z,15.37
2019-05-09T17:22:42.426Z,15.23
2019-05-09T17:25:08.719Z,15.14
2019-05-09T17:27:35.090Z,15.12
2019-05-09T17:30:02.882Z,15.06
2019-05-09T17:32:29.271Z,14.91
2019-05-09T17:34:58.152Z,14.79
2019-05-09T17:37:23.803Z,14.73
2019-05-09T17:39:50.018Z,14.63
2019-05-09T17:42:18.113Z,14.55
2019-05-09T17:44:44.249Z,14.54
2019-05-09T17:47:10.526Z,14.50
2019-05-09T17:49:37.483Z,14.46
2019-05-09T17:52:04.014Z,14.39
2019-05-09T17:54:30.249Z,14.36
2019-05-09T17:56:57.347Z,14.32
2019-05-09T17:59:23.873Z,14.24
2019-05-09T18:01:50.095Z,14.21
2019-05-09T18:04:17.931Z,14.25
2019-05-09T18:06:44.472Z,14.25
2019-05-09T18:09:10.886Z,14.23
2019-05-09T18:11:37.848Z,14.24
2019-05-09T18:14:04.116Z,14.18
2019-05-09T18:16:30.659Z,14.09
2019-05-09T18:18:59.108Z,14.04
2019-05-09T18:21:25.268Z,14.04
2019-05-09T18:23:51.475Z,13.99
2019-05-09T18:26:18.510Z,13.93
2019-05-09T18:28:45.197Z,13.75
2019-05-09T18:31:11.415Z,13.57
2019-05-09T18:33:47.589Z,13.46
2019-05-09T18:36:13.599Z,13.41
2019-05-09T18:38:39.920Z,13.32
2019-05-09T18:41:09.549Z,13.21
2019-05-09T18:43:34.156Z,13.07
2019-05-09T18:46:00.417Z,12.95
2019-05-09T18:48:27.826Z,12.86
2019-05-09T18:50:54.386Z,12.81
2019-05-09T18:53:20.711Z,12.74
2019-05-09T18:55:46.936Z,12.67
2019-05-09T18:58:13.056Z,12.58
2019-05-09T19:00:39.298Z,12.52
2019-05-09T19:03:05.580Z,12.47
2019-05-09T19:05:31.829Z,12.50
2019-05-09T19:07:58.063Z,12.54
2019-05-09T19:10:24.478Z,12.57
2019-05-09T19:12:50.794Z,12.57
2019-05-09T19:15:28.361Z,12.48
2019-05-09T19:18:02.648Z,12.42
2019-05-09T19:20:47.809Z,12.35
2019-05-09T19:23:14.100Z,12.24
2019-05-09T19:25:40.433Z,12.16
2019-05-09T19:28:06.865Z,12.13
2019-05-09T19:30:34.376Z,12.20
2019-05-09T19:33:00.829Z,12.17
2019-05-09T19:35:27.015Z,12.16
2019-05-09T19:37:53.297Z,12.12
2019-05-09T19:40:20.414Z,12.05
2019-05-09T19:42:47.036Z,12.02
2019-05-09T19:45:13.765Z,12.00
2019-05-09T19:47:40.056Z,11.95
2019-05-09T19:50:06.699Z,11.88
2019-05-09T19:52:38.534Z,11.85
2019-05-09T19:55:02.498Z,11.88
2019-05-09T19:57:28.953Z,11.90
2019-05-09T19:59:55.381Z,11.86
2019-05-09T20:02:21.512Z,11.79
2019-05-09T20:04:47.835Z,11.70
2019-05-09T20:07:14.113Z,11.60
2019-05-09T20:09:42.237Z,11.54
2019-05-09T20:12:13.253Z,11.52
2019-05-09T20:14:41.288Z,11.53
2019-05-09T20:17:07.533Z,11.48
2019-05-09T20:19:33.926Z,11.50
2019-05-09T20:22:00.110Z,11.50
2019-05-09T20:24:26.455Z,11.44
2019-05-09T20:26:52.713Z,11.46
2019-05-09T20:29:19.054Z,11.40
2019-05-09T20:31:45.400Z,11.42
2019-05-09T20:34:11.776Z,11.33
2019-05-09T20:36:37.895Z,11.27
2019-05-09T20:39:06.569Z,11.18
2019-05-09T20:41:33.669Z,11.10
2019-05-09T20:44:00.123Z,11.02
2019-05-09T20:46:26.452Z,10.93
2019-05-09T20:48:52.549Z,10.86
2019-05-09T20:51:18.790Z,10.82
2019-05-09T20:53:44.984Z,10.79
2019-05-09T20:56:11.212Z,10.73
2019-05-09T20:58:37.352Z,10.71
2019-05-09T21:01:03.705Z,10.66
2019-05-09T21:03:29.875Z,10.64
2019-05-09T21:05:56.088Z,10.63
2019-05-09T21:08:22.466Z,10.62
2019-05-09T21:10:48.587Z,10.59
2019-05-09T21:13:14.804Z,10.58
2019-05-09T21:15:40.946Z,10.57
2019-05-09T21:18:07.217Z,10.57
2019-05-09T21:20:34.427Z,10.57
2019-05-09T21:23:00.810Z,10.60
2019-05-09T21:25:27.282Z,10.63
2019-05-09T21:27:53.634Z,10.69
2019-05-09T21:30:20.084Z,10.72
2019-05-09T21:32:46.237Z,10.74
2019-05-09T21:35:13.245Z,10.73
2019-05-09T21:37:39.426Z,10.75
2019-05-09T21:40:06.318Z,10.76
2019-05-09T21:42:32.509Z,10.74
2019-05-09T21:44:58.631Z,10.76
2019-05-09T21:47:24.795Z,10.81
2019-05-09T21:49:50.965Z,10.80
2019-05-09T21:52:17.121Z,10.81
2019-05-09T21:54:43.284Z,10.77
2019-05-09T21:57:09.622Z,10.77
2019-05-09T21:59:36.112Z,10.77
2019-05-09T22:02:02.944Z,10.75
2019-05-09T22:04:29.373Z,10.71
2019-05-09T22:06:55.529Z,10.66
2019-05-09T22:09:21.711Z,10.70
2019-05-09T22:11:48.067Z,10.70
2019-05-09T22:14:14.500Z,10.75
2019-05-09T22:16:40.814Z,10.76
2019-05-09T22:19:07.078Z,10.80
2019-05-09T22:21:33.267Z,10.78
2019-05-09T22:23:59.423Z,10.80
2019-05-09T22:26:25.571Z,10.82
2019-05-09T22:28:51.783Z,10.80
2019-05-09T22:31:18.062Z,10.87
2019-05-09T22:33:44.334Z,10.92
2019-05-09T22:36:11.540Z,10.85
2019-05-09T22:38:37.790Z,10.78
2019-05-09T22:41:03.918Z,10.74
2019-05-09T22:43:30.134Z,10.72
2019-05-09T22:45:56.257Z,10.70
2019-05-09T22:48:22.505Z,10.65
2019-05-09T22:50:48.702Z,10.68
2019-05-09T22:53:14.987Z,10.62
2019-05-09T22:55:41.218Z,10.50
2019-05-09T22:58:07.427Z,10.47
2019-05-09T23:00:33.916Z,10.49
2019-05-09T23:03:00.122Z,10.50
2019-05-09T23:05:26.329Z,10.51
2019-05-09T23:07:52.572Z,10.52
2019-05-09T23:10:18.748Z,10.48
2019-05-09T23:12:45.118Z,10.44
2019-05-09T23:15:13.624Z,10.42
2019-05-09T23:17:39.896Z,10.42
2019-05-09T23:20:08.580Z,10.37
2019-05-09T23:22:35.097Z,10.36
2019-05-09T23:25:01.381Z,10.33
2019-05-09T23:27:27.659Z,10.30
2019-05-09T23:29:53.884Z,10.27
2019-05-09T23:32:30.791Z,10.22
2019-05-09T23:34:56.966Z,10.18
2019-05-09T23:37:23.233Z,10.18
2019-05-09T23:39:51.381Z,10.15
2019-05-09T23:42:17.558Z,10.11
2019-05-09T23:44:43.892Z,10.10
2019-05-09T23:47:10.151Z,10.08
2019-05-09T23:49:36.316Z,10.06
2019-05-09T23:52:02.663Z,10.09
2019-05-09T23:54:48.097Z,10.07
2019-05-09T23:57:32.806Z,10.04
